Time;durP1;ratioP1;P1;durP2;ratioP2;P2;SDS_P1;SDS_P2;PMS_P1;PMS_P2;Temp;Humidity;BMP_temperature;BMP_pressure;BME280_temperature;BME280_humidity;BME280_pressure;Samples;Min_cycle;Max_cycle;Signal;HPM_P1;HPM_P2
2021/06/23 00:00:29;;;;;;;18.98;12.32;;;13.80;87.90;;;;;;5102441;28;20043;-82
2021/06/23 00:02:55;;;;;;;18.17;11.20;;;13.80;87.80;;;;;;5094267;28;20039;-82
2021/06/23 00:05:21;;;;;;;21.02;11.82;;;13.80;88.00;;;;;;5093871;28;20024;-82
2021/06/23 00:07:47;;;;;;;15.45;9.98;;;13.80;88.50;;;;;;5094346;28;20119;-83
2021/06/23 00:10:15;;;;;;;25.98;12.07;;;13.80;88.60;;;;;;5105020;28;20023;-83
2021/06/23 00:12:44;;;;;;;19.65;10.75;;;13.80;88.20;;;;;;5096465;28;20107;-83
2021/06/23 00:15:13;;;;;;;19.90;12.13;;;13.70;88.20;;;;;;5095730;28;20365;-84
2021/06/23 00:17:38;;;;;;;16.27;11.45;;;13.70;88.70;;;;;;5094932;28;20131;-85
2021/06/23 00:20:06;;;;;;;23.67;12.88;;;13.70;89.10;;;;;;5095299;28;20062;-84
2021/06/23 00:22:31;;;;;;;23.38;12.43;;;13.70;88.90;;;;;;5104558;28;20047;-84
2021/06/23 00:24:57;;;;;;;23.30;13.32;;;13.80;89.10;;;;;;5099924;28;20020;-84
2021/06/23 00:27:23;;;;;;;17.33;10.60;;;13.70;89.60;;;;;;5094857;28;20042;-86
2021/06/23 00:29:48;;;;;;;21.50;13.15;;;13.70;89.40;;;;;;5095355;28;20008;-85
2021/06/23 00:32:16;;;;;;;18.15;10.13;;;13.70;89.20;;;;;;5094196;28;20120;-84
2021/06/23 00:34:42;;;;;;;17.15;10.95;;;13.70;89.10;;;;;;5093959;28;20020;-85
2021/06/23 00:37:07;;;;;;;20.63;12.32;;;13.70;88.80;;;;;;5094611;28;20058;-86
2021/06/23 00:39:33;;;;;;;22.13;12.15;;;13.70;88.80;;;;;;5096166;28;20027;-85
2021/06/23 00:41:59;;;;;;;19.70;12.30;;;13.70;89.10;;;;;;5097321;28;20411;-85
2021/06/23 00:44:25;;;;;;;22.20;13.05;;;13.70;89.50;;;;;;5098958;28;20468;-86
2021/06/23 00:46:52;;;;;;;21.70;13.07;;;13.60;89.50;;;;;;5106307;28;20050;-85
2021/06/23 00:49:18;;;;;;;18.45;13.23;;;13.60;90.00;;;;;;5113556;28;20024;-86
2021/06/23 00:51:45;;;;;;;21.25;13.18;;;13.60;90.00;;;;;;5104781;28;20380;-87
2021/06/23 00:54:13;;;;;;;23.88;13.90;;;13.60;90.00;;;;;;5096725;28;20028;-87
2021/06/23 00:56:40;;;;;;;21.70;13.48;;;13.60;90.00;;;;;;5096160;28;20027;-87
2021/06/23 00:59:08;;;;;;;18.05;12.05;;;13.50;90.60;;;;;;5098792;28;20024;-87
2021/06/23 01:01:37;;;;;;;16.63;11.18;;;13.50;90.50;;;;;;5097935;28;20117;-88
2021/06/23 01:04:04;;;;;;;22.87;11.90;;;13.50;90.20;;;;;;5097924;28;20016;-87
2021/06/23 01:06:31;;;;;;;19.02;11.73;;;13.50;90.50;;;;;;5106713;28;20261;-86
2021/06/23 01:08:57;;;;;;;19.65;11.20;;;13.50;90.20;;;;;;5116479;28;20084;-86
2021/06/23 01:11:25;;;;;;;18.98;11.43;;;13.50;90.40;;;;;;5112225;28;20043;-85
2021/06/23 01:14:04;;;;;;;19.65;11.77;;;13.50;90.30;;;;;;5097146;28;20353;-87
2021/06/23 01:16:36;;;;;;;22.52;11.77;;;13.50;90.50;;;;;;5095084;28;20024;-85
2021/06/23 01:19:07;;;;;;;14.55;9.85;;;13.60;90.30;;;;;;5098235;28;20476;-85
2021/06/23 01:21:33;;;;;;;25.95;12.57;;;13.50;90.20;;;;;;5100762;28;20107;-84
2021/06/23 01:23:59;;;;;;;20.02;12.07;;;13.60;90.30;;;;;;5097139;28;20062;-85
2021/06/23 01:26:25;;;;;;;17.30;11.05;;;13.50;90.10;;;;;;5097668;28;20123;-85
2021/06/23 01:28:50;;;;;;;19.15;11.45;;;13.60;90.30;;;;;;5094792;28;20088;-85
2021/06/23 01:31:18;;;;;;;16.45;11.10;;;13.50;90.30;;;;;;5096293;28;20044;-87
2021/06/23 01:33:44;;;;;;;18.92;11.23;;;13.60;90.30;;;;;;5095833;28;20044;-84
2021/06/23 01:36:10;;;;;;;20.58;10.82;;;13.60;90.70;;;;;;5093702;28;20050;-85
2021/06/23 01:38:36;;;;;;;17.75;11.40;;;13.60;90.40;;;;;;5093378;28;20024;-84
2021/06/23 01:41:02;;;;;;;15.55;11.27;;;13.60;90.20;;;;;;5096750;28;20028;-85
2021/06/23 01:43:28;;;;;;;19.02;10.30;;;13.60;90.20;;;;;;5093311;28;20066;-85
2021/06/23 01:45:54;;;;;;;25.55;13.30;;;13.60;90.20;;;;;;5096698;28;20013;-85
2021/06/23 01:48:22;;;;;;;21.98;11.88;;;13.60;90.10;;;;;;5096489;28;20058;-87
2021/06/23 01:50:55;;;;;;;17.77;11.23;;;13.60;90.20;;;;;;5097708;28;20371;-87
2021/06/23 01:53:21;;;;;;;20.55;10.60;;;13.60;90.40;;;;;;5097401;28;20403;-87
2021/06/23 01:55:48;;;;;;;18.80;11.98;;;13.60;90.20;;;;;;5098865;28;20518;-87
2021/06/23 01:58:14;;;;;;;19.92;10.38;;;13.60;90.30;;;;;;5102815;28;20028;-86
2021/06/23 02:00:48;;;;;;;15.27;9.63;;;13.60;90.20;;;;;;5118049;28;20020;-86
2021/06/23 02:03:32;;;;;;;17.88;11.05;;;13.60;90.10;;;;;;5119567;28;20100;-87
2021/06/23 02:06:09;;;;;;;20.05;11.57;;;13.60;90.00;;;;;;5105558;28;20024;-86
2021/06/23 02:08:47;;;;;;;20.08;12.25;;;13.60;90.10;;;;;;5097870;28;20017;-87
2021/06/23 02:11:38;;;;;;;18.63;11.43;;;13.60;90.20;;;;;;5098178;28;20350;-87
2021/06/23 02:14:29;;;;;;;17.05;10.43;;;13.60;90.20;;;;;;5098321;28;20032;-86
2021/06/23 02:16:56;;;;;;;14.43;9.63;;;13.60;90.00;;;;;;5097201;28;20031;-86
2021/06/23 02:19:22;;;;;;;18.73;11.23;;;13.60;89.60;;;;;;5097822;28;20058;-89
2021/06/23 02:21:48;;;;;;;16.23;9.38;;;13.60;89.90;;;;;;5096939;28;20047;-88
2021/06/23 02:24:14;;;;;;;19.08;10.80;;;13.60;90.00;;;;;;5097871;28;20032;-89
2021/06/23 02:26:39;;;;;;;20.40;10.80;;;13.60;89.30;;;;;;5099674;28;20487;-88
2021/06/23 02:29:06;;;;;;;19.83;10.38;;;13.60;89.70;;;;;;5100350;28;20005;-89
2021/06/23 02:31:36;;;;;;;16.80;11.10;;;13.60;90.20;;;;;;5102356;28;20273;-88
2021/06/23 02:34:05;;;;;;;12.23;8.73;;;13.60;89.90;;;;;;5105621;28;20117;-88
2021/06/23 02:36:31;;;;;;;20.13;9.65;;;13.60;89.30;;;;;;5103890;28;20038;-89
2021/06/23 02:38:57;;;;;;;17.92;10.48;;;13.60;89.10;;;;;;5109505;28;20037;-88
2021/06/23 02:41:23;;;;;;;23.23;10.40;;;13.50;89.30;;;;;;5118536;28;20016;-89
2021/06/23 02:43:48;;;;;;;14.85;10.80;;;13.50;89.40;;;;;;5104643;28;20032;-89
2021/06/23 02:46:16;;;;;;;16.30;10.82;;;13.50;90.10;;;;;;5096491;28;20207;-89
2021/06/23 02:48:41;;;;;;;15.90;10.55;;;13.60;90.00;;;;;;5098416;28;20027;-87
2021/06/23 02:51:20;;;;;;;15.75;9.43;;;13.60;89.70;;;;;;5101324;28;20086;-89
2021/06/23 02:53:48;;;;;;;22.52;9.60;;;13.50;89.60;;;;;;5103768;28;20034;-89
2021/06/23 02:56:16;;;;;;;16.40;9.98;;;13.50;89.30;;;;;;5097381;28;20460;-90
2021/06/23 02:58:42;;;;;;;20.13;11.38;;;13.50;89.20;;;;;;5098316;28;20027;-90
2021/06/23 03:01:13;;;;;;;20.38;10.52;;;13.50;89.00;;;;;;5098407;28;20045;-90
2021/06/23 03:03:44;;;;;;;19.35;10.18;;;13.50;89.40;;;;;;5098197;28;20045;-90
2021/06/23 03:06:10;;;;;;;;;;;13.50;89.60;;;;;;5098668;28;20020;-89
2021/06/23 03:08:37;;;;;;;15.02;8.98;;;13.50;89.20;;;;;;5099583;28;19907;-90
2021/06/23 03:11:05;;;;;;;14.10;9.05;;;13.50;89.00;;;;;;5101992;28;20020;-89
2021/06/23 03:13:31;;;;;;;19.75;11.35;;;13.50;89.10;;;;;;5118891;28;20024;-91
2021/06/23 03:15:58;;;;;;;21.85;9.00;;;13.50;89.10;;;;;;5118832;28;20035;-91
2021/06/23 03:18:24;;;;;;;21.92;10.23;;;13.50;89.60;;;;;;5116535;28;20036;-90
2021/06/23 03:20:49;;;;;;;18.75;10.20;;;13.50;89.20;;;;;;5118867;28;20015;-88
2021/06/23 03:23:17;;;;;;;19.77;10.60;;;13.40;89.20;;;;;;5118596;28;20028;-91
2021/06/23 03:25:43;;;;;;;19.67;10.45;;;13.40;89.50;;;;;;5103222;28;20059;-89
2021/06/23 03:28:11;;;;;;;18.33;9.73;;;13.40;89.60;;;;;;5099095;28;20086;-90
2021/06/23 03:30:37;;;;;;;18.48;10.50;;;13.40;89.60;;;;;;5104512;28;20058;-88
2021/06/23 03:33:04;;;;;;;15.27;10.75;;;13.40;89.40;;;;;;5098684;28;20030;-90
2021/06/23 03:35:31;;;;;;;17.80;10.18;;;13.50;89.60;;;;;;5098417;28;20023;-90
2021/06/23 03:37:57;;;;;;;17.45;9.48;;;13.50;89.40;;;;;;5098314;28;20384;-90
2021/06/23 03:40:25;;;;;;;18.45;10.40;;;13.50;89.00;;;;;;5097237;28;20051;-90
2021/06/23 03:42:52;;;;;;;16.50;10.32;;;13.50;89.10;;;;;;5095721;28;20382;-89
2021/06/23 03:45:18;;;;;;;17.75;11.13;;;13.50;89.10;;;;;;5096292;28;20020;-89
2021/06/23 03:47:45;;;;;;;20.25;10.48;;;13.50;89.10;;;;;;5097785;28;20495;-90
2021/06/23 03:50:12;;;;;;;14.77;8.93;;;13.50;89.80;;;;;;5100925;28;20494;-91
2021/06/23 03:52:40;;;;;;;16.38;10.93;;;13.50;89.60;;;;;;5100473;28;20035;-90
2021/06/23 03:55:08;;;;;;;19.60;9.43;;;13.50;89.80;;;;;;5099160;28;20056;-89
2021/06/23 03:57:35;;;;;;;15.50;9.38;;;13.60;89.50;;;;;;5098740;28;20024;-90
2021/06/23 04:00:28;;;;;;;11.75;6.82;;;13.60;89.20;;;;;;5098078;28;20024;-91
2021/06/23 04:02:56;;;;;;;17.25;9.38;;;13.60;89.00;;;;;;5082305;28;20064;-89
2021/06/23 04:05:24;;;;;;;18.13;10.70;;;13.60;88.90;;;;;;5101625;28;20107;-90
2021/06/23 04:07:51;;;;;;;24.55;10.55;;;13.60;88.90;;;;;;5102428;28;20098;-89
2021/06/23 04:10:18;;;;;;;18.08;10.05;;;13.60;89.00;;;;;;5100880;28;20052;-90
2021/06/23 04:12:45;;;;;;;15.52;10.18;;;13.60;88.80;;;;;;5098518;28;20092;-90
2021/06/23 04:15:14;;;;;;;25.67;11.40;;;13.50;89.10;;;;;;5098448;28;20072;-91
2021/06/23 04:17:42;;;;;;;17.90;10.70;;;13.60;89.00;;;;;;5100213;28;20052;-93
2021/06/23 04:20:11;;;;;;;18.38;11.75;;;13.60;88.90;;;;;;5099786;28;20028;-90
2021/06/23 04:22:39;;;;;;;13.38;8.80;;;13.60;89.00;;;;;;5097700;28;20124;-89
2021/06/23 04:25:09;;;;;;;17.67;9.95;;;13.60;89.20;;;;;;5098120;28;20038;-91
2021/06/23 04:27:37;;;;;;;17.30;10.02;;;13.60;88.60;;;;;;5098416;28;20036;-89
2021/06/23 04:30:11;;;;;;;14.95;9.90;;;13.60;88.70;;;;;;5102445;28;20016;-90
2021/06/23 04:32:39;;;;;;;17.95;9.30;;;13.60;88.60;;;;;;5110136;28;20085;-90
2021/06/23 04:35:11;;;;;;;18.75;10.77;;;13.70;88.40;;;;;;5109238;28;20036;-89
2021/06/23 04:37:41;;;;;;;15.57;8.98;;;13.70;88.40;;;;;;5109082;28;20122;-90
2021/06/23 04:40:10;;;;;;;17.55;9.43;;;13.70;88.30;;;;;;5117247;28;20068;-89
2021/06/23 04:42:38;;;;;;;20.02;10.57;;;13.70;88.00;;;;;;5116682;28;20043;-87
2021/06/23 04:45:10;;;;;;;12.70;6.75;;;13.70;87.80;;;;;;5104930;28;20119;-88
2021/06/23 04:47:39;;;;;;;19.50;9.40;;;13.60;87.90;;;;;;5101326;28;20032;-90
2021/06/23 04:50:07;;;;;;;13.65;8.48;;;13.70;87.50;;;;;;5100930;28;20339;-90
2021/06/23 04:52:34;;;;;;;13.90;8.18;;;13.70;87.30;;;;;;5099152;28;20357;-88
2021/06/23 04:55:01;;;;;;;15.10;8.98;;;13.60;87.40;;;;;;5096569;28;20020;-89
2021/06/23 04:57:27;;;;;;;12.43;8.40;;;13.70;87.40;;;;;;5097092;28;20031;-89
2021/06/23 04:59:52;;;;;;;15.77;9.35;;;13.70;88.00;;;;;;5096050;28;20032;-88
2021/06/23 05:02:18;;;;;;;13.93;8.20;;;13.70;87.70;;;;;;5097209;28;20020;-87
2021/06/23 05:04:48;;;;;;;11.20;5.63;;;13.70;87.40;;;;;;5096681;28;20036;-89
2021/06/23 05:07:14;;;;;;;19.10;9.55;;;13.80;87.40;;;;;;5098407;28;20062;-89
2021/06/23 05:09:40;;;;;;;16.05;9.48;;;13.80;87.40;;;;;;5099014;28;20031;-88
2021/06/23 05:12:08;;;;;;;16.90;8.70;;;13.80;87.80;;;;;;5098247;28;20028;-88
2021/06/23 05:14:35;;;;;;;17.23;8.15;;;13.80;87.70;;;;;;5099525;28;20491;-88
2021/06/23 05:17:01;;;;;;;13.90;9.65;;;13.80;87.50;;;;;;5108750;28;20054;-88
2021/06/23 05:19:28;;;;;;;16.48;9.60;;;13.80;87.30;;;;;;5119260;28;20012;-90
2021/06/23 05:21:54;;;;;;;15.75;9.02;;;13.80;87.70;;;;;;5117980;28;20024;-88
2021/06/23 05:24:20;;;;;;;13.65;8.25;;;13.90;87.70;;;;;;5107368;28;20082;-89
2021/06/23 05:26:46;;;;;;;14.43;8.73;;;13.90;87.20;;;;;;5103631;28;20024;-86
2021/06/23 05:29:12;;;;;;;15.32;9.07;;;14.00;87.60;;;;;;5101351;28;20028;-86
2021/06/23 05:31:38;;;;;;;13.63;8.90;;;14.00;87.40;;;;;;5104670;28;20083;-88
2021/06/23 05:34:04;;;;;;;18.08;8.90;;;14.10;87.50;;;;;;5103910;28;20111;-88
2021/06/23 05:36:29;;;;;;;13.25;7.80;;;14.10;87.10;;;;;;5102007;28;20016;-88
2021/06/23 05:38:56;;;;;;;11.10;7.20;;;14.10;86.80;;;;;;5102884;28;20030;-88
2021/06/23 05:41:23;;;;;;;17.15;8.43;;;14.20;86.60;;;;;;5102327;28;20012;-89
2021/06/23 05:43:49;;;;;;;16.15;8.65;;;14.20;86.30;;;;;;5102132;28;20036;-90
2021/06/23 05:46:16;;;;;;;10.05;6.35;;;14.30;86.10;;;;;;5101715;28;20058;-87
2021/06/23 05:48:41;;;;;;;10.75;5.10;;;14.30;86.40;;;;;;5102886;28;20027;-89
2021/06/23 05:51:07;;;;;;;10.00;6.13;;;14.40;85.60;;;;;;5103699;28;20384;-86
2021/06/23 05:53:33;;;;;;;13.82;6.90;;;14.50;85.00;;;;;;5101575;28;20022;-87
2021/06/23 05:55:59;;;;;;;9.32;6.13;;;14.60;84.90;;;;;;5104487;28;20012;-85
2021/06/23 05:58:26;;;;;;;15.13;8.07;;;14.60;84.50;;;;;;5110164;28;20028;-86
2021/06/23 06:00:51;;;;;;;13.02;5.90;;;14.70;84.10;;;;;;5112184;28;20085;-86
2021/06/23 06:03:17;;;;;;;10.20;6.72;;;14.80;84.10;;;;;;5102618;28;20028;-85
2021/06/23 06:05:43;;;;;;;13.20;5.60;;;14.90;83.60;;;;;;5101249;28;20020;-85
2021/06/23 06:08:11;;;;;;;9.80;4.32;;;15.00;82.80;;;;;;5102355;28;20107;-87
2021/06/23 06:10:37;;;;;;;10.00;4.88;;;15.20;81.10;;;;;;5101197;28;20349;-86
2021/06/23 06:13:04;;;;;;;6.47;3.92;;;15.30;81.60;;;;;;5101170;28;20332;-88
2021/06/23 06:15:31;;;;;;;7.93;3.50;;;15.40;80.30;;;;;;5098327;28;20030;-88
2021/06/23 06:18:02;;;;;;;9.80;4.60;;;15.50;79.10;;;;;;5099735;28;20032;-87
2021/06/23 06:20:28;;;;;;;7.47;3.88;;;15.60;78.50;;;;;;5103100;28;20061;-87
2021/06/23 06:22:53;;;;;;;13.63;4.88;;;15.60;78.10;;;;;;5114526;28;20036;-86
2021/06/23 06:25:19;;;;;;;4.65;2.55;;;15.60;77.80;;;;;;5119455;28;20011;-86
2021/06/23 06:27:45;;;;;;;10.95;5.28;;;15.50;78.40;;;;;;5108512;28;20023;-87
2021/06/23 06:30:11;;;;;;;8.00;4.00;;;15.60;79.40;;;;;;5098506;28;20031;-85
2021/06/23 06:32:36;;;;;;;9.82;3.95;;;15.70;78.60;;;;;;5099030;28;20016;-87
2021/06/23 06:35:04;;;;;;;9.90;4.15;;;15.60;78.40;;;;;;5103146;28;20028;-86
2021/06/23 06:37:30;;;;;;;14.15;5.45;;;15.60;79.10;;;;;;5102228;28;20040;-86
2021/06/23 06:39:56;;;;;;;9.55;4.15;;;15.70;79.90;;;;;;5098992;28;20099;-86
2021/06/23 06:42:22;;;;;;;13.00;4.85;;;15.80;79.60;;;;;;5101142;28;20051;-86
2021/06/23 06:44:48;;;;;;;11.48;4.15;;;15.90;79.50;;;;;;5097515;28;20040;-85
2021/06/23 06:47:13;;;;;;;17.85;4.43;;;16.00;79.30;;;;;;5098314;28;20020;-86
2021/06/23 06:49:39;;;;;;;13.77;3.88;;;16.00;77.30;;;;;;5098178;28;20024;-85
2021/06/23 06:52:06;;;;;;;11.73;3.50;;;16.00;76.60;;;;;;5097361;28;20020;-87
2021/06/23 06:54:32;;;;;;;10.10;3.35;;;16.00;76.70;;;;;;5090520;28;20020;-87
2021/06/23 06:56:58;;;;;;;14.60;3.85;;;16.10;77.10;;;;;;5088334;28;20047;-88
2021/06/23 06:59:24;;;;;;;9.30;2.83;;;16.10;77.30;;;;;;5082389;28;20480;-87
2021/06/23 07:01:51;;;;;;;15.95;4.57;;;16.10;76.30;;;;;;5090821;28;20050;-88
2021/06/23 07:04:17;;;;;;;10.43;3.40;;;16.10;76.00;;;;;;5093571;28;20055;-87
2021/06/23 07:06:44;;;;;;;5.95;2.70;;;16.20;76.00;;;;;;5096819;28;20460;-91
2021/06/23 07:09:11;;;;;;;12.70;3.75;;;16.20;75.90;;;;;;5097367;28;20055;-86
2021/06/23 07:11:37;;;;;;;27.23;4.78;;;16.20;74.80;;;;;;5100965;28;20028;-85
2021/06/23 07:14:02;;;;;;;10.18;3.67;;;16.20;74.50;;;;;;5105417;28;20031;-86
2021/06/23 07:16:28;;;;;;;9.30;3.60;;;16.30;75.40;;;;;;5107290;28;20061;-82
2021/06/23 07:18:54;;;;;;;11.18;4.20;;;16.30;75.00;;;;;;5106426;28;20095;-85
2021/06/23 07:21:20;;;;;;;9.48;2.67;;;16.30;74.90;;;;;;5105396;28;20024;-86
2021/06/23 07:23:48;;;;;;;7.55;2.80;;;16.30;75.60;;;;;;5102522;28;20058;-84
2021/06/23 07:26:15;;;;;;;11.90;3.50;;;16.30;74.50;;;;;;5117556;28;20011;-85
2021/06/23 07:28:48;;;;;;;19.20;4.28;;;16.40;75.80;;;;;;5115085;28;20039;-85
2021/06/23 07:31:17;;;;;;;11.80;2.80;;;16.50;75.00;;;;;;5098066;28;20065;-84
2021/06/23 07:33:51;;;;;;;11.17;3.00;;;16.70;74.90;;;;;;5096558;28;20161;-84
2021/06/23 07:36:37;;;;;;;6.72;2.47;;;16.60;74.60;;;;;;5093677;28;20081;-85
2021/06/23 07:39:08;;;;;;;10.70;2.85;;;16.70;74.10;;;;;;5094642;28;20044;-79
2021/06/23 07:41:38;;;;;;;9.10;3.03;;;16.70;74.10;;;;;;5092821;28;20054;-79
2021/06/23 07:44:05;;;;;;;14.60;3.67;;;16.80;73.60;;;;;;5096078;28;20032;-83
2021/06/23 07:46:36;;;;;;;13.48;3.90;;;16.80;73.70;;;;;;5094742;28;20203;-84
2021/06/23 07:49:02;;;;;;;7.00;2.90;;;16.90;73.20;;;;;;5097520;28;20368;-86
2021/06/23 07:51:44;;;;;;;10.85;2.65;;;17.00;73.10;;;;;;5103083;28;20024;-87
2021/06/23 08:02:45;;;;;;;8.80;2.70;;;17.30;72.70;;;;;;5097408;28;20070;-86
2021/06/23 08:10:31;;;;;;;9.57;3.38;;;17.70;71.30;;;;;;5096319;28;20438;-82
2021/06/23 08:12:58;;;;;;;9.50;2.55;;;17.80;70.50;;;;;;5095417;28;20039;-83
2021/06/23 08:15:29;;;;;;;6.03;2.10;;;18.00;69.90;;;;;;5096371;28;20124;-85
2021/06/23 08:17:55;;;;;;;15.55;3.80;;;18.20;70.40;;;;;;5104178;28;20046;-83
2021/06/23 08:20:21;;;;;;;8.18;2.25;;;18.40;69.30;;;;;;5104084;28;20024;-83
2021/06/23 08:22:47;;;;;;;7.50;2.53;;;18.70;68.00;;;;;;5093660;28;20107;-81
2021/06/23 08:25:13;;;;;;;16.92;2.90;;;18.90;67.10;;;;;;5094702;28;20016;-82
2021/06/23 08:27:40;;;;;;;7.47;2.63;;;19.10;66.50;;;;;;5105174;28;20042;-83
2021/06/23 08:30:07;;;;;;;10.15;2.97;;;19.10;66.70;;;;;;5095103;28;20024;-83
2021/06/23 08:32:32;;;;;;;6.20;2.10;;;19.30;65.10;;;;;;5095178;28;20020;-80
2021/06/23 08:34:58;;;;;;;8.10;2.22;;;19.30;65.60;;;;;;5096809;28;20030;-80
2021/06/23 08:37:24;;;;;;;9.07;2.88;;;19.20;66.70;;;;;;5097142;28;20027;-79
2021/06/23 08:39:49;;;;;;;5.30;1.80;;;19.20;65.20;;;;;;5097306;28;20223;-80
2021/06/23 08:42:15;;;;;;;6.90;1.50;;;19.20;64.70;;;;;;5094411;28;20020;-82
2021/06/23 08:44:41;;;;;;;7.00;1.90;;;19.10;66.80;;;;;;5094120;28;20024;-81
2021/06/23 08:47:07;;;;;;;5.63;1.40;;;19.10;67.90;;;;;;5092809;28;20090;-81
2021/06/23 08:49:33;;;;;;;9.75;2.17;;;19.20;68.00;;;;;;5092952;28;20035;-80
2021/06/23 08:51:59;;;;;;;8.55;2.33;;;19.30;65.70;;;;;;5092659;28;20380;-81
2021/06/23 08:54:29;;;;;;;10.27;2.10;;;19.40;64.70;;;;;;5095779;28;20064;-80
2021/06/23 08:56:54;;;;;;;6.43;1.92;;;19.40;63.90;;;;;;5097018;28;20089;-81
2021/06/23 08:59:20;;;;;;;4.35;1.80;;;19.40;63.00;;;;;;5097679;28;20020;-80
2021/06/23 09:01:48;;;;;;;9.23;1.88;;;19.40;63.50;;;;;;5096864;28;20077;-81
2021/06/23 09:04:15;;;;;;;6.47;1.30;;;19.50;65.40;;;;;;5096206;28;20051;-82
2021/06/23 09:06:42;;;;;;;6.95;1.73;;;19.70;65.80;;;;;;5097352;28;20081;-81
2021/06/23 09:09:30;;;;;;;7.85;2.40;;;19.80;63.30;;;;;;5098384;28;20362;-83
2021/06/23 09:12:04;;;;;;;8.93;2.10;;;19.90;63.70;;;;;;5100043;28;20028;-83
2021/06/23 09:14:36;;;;;;;6.85;1.50;;;20.10;62.60;;;;;;5098560;28;20077;-82
2021/06/23 09:17:16;;;;;;;9.30;1.92;;;20.10;64.00;;;;;;5097922;28;20020;-81
2021/06/23 09:19:48;;;;;;;4.43;1.42;;;20.10;61.30;;;;;;5098039;28;20018;-81
2021/06/23 09:22:39;;;;;;;8.48;1.95;;;20.30;62.00;;;;;;5098363;28;20046;-82
2021/06/23 09:25:11;;;;;;;8.80;2.50;;;20.40;62.80;;;;;;5098913;28;20115;-80
2021/06/23 09:27:47;;;;;;;11.52;2.35;;;20.50;60.80;;;;;;5104449;28;20023;-79
2021/06/23 09:30:30;;;;;;;5.25;1.40;;;20.50;62.20;;;;;;5112635;28;20115;-81
2021/06/23 09:33:27;;;;;;;5.47;1.90;;;20.50;63.60;;;;;;5104218;28;20088;-81
2021/06/23 09:35:56;;;;;;;5.50;1.23;;;20.50;62.10;;;;;;5096920;28;20028;-81
2021/06/23 09:38:44;;;;;;;9.63;2.25;;;20.60;63.10;;;;;;5096912;28;20020;-80
2021/06/23 09:41:24;;;;;;;6.90;1.75;;;20.80;60.90;;;;;;5095940;28;20050;-82
2021/06/23 09:43:53;;;;;;;10.30;2.38;;;20.60;59.50;;;;;;5095343;28;20032;-78
2021/06/23 09:46:24;;;;;;;7.80;1.55;;;20.60;59.30;;;;;;5095764;28;20055;-79
2021/06/23 09:48:59;;;;;;;8.82;2.03;;;20.60;60.80;;;;;;5095786;28;20054;-79
2021/06/23 09:51:25;;;;;;;8.27;1.60;;;20.70;60.50;;;;;;5095181;28;20024;-80
2021/06/23 09:53:59;;;;;;;6.57;1.85;;;20.80;62.80;;;;;;5097713;28;20083;-77
2021/06/23 09:56:27;;;;;;;5.95;1.30;;;20.70;61.50;;;;;;5100120;28;20024;-79
2021/06/23 09:58:55;;;;;;;4.22;1.33;;;20.60;61.90;;;;;;5103972;28;20053;-81
2021/06/23 10:01:22;;;;;;;3.58;1.40;;;20.70;61.50;;;;;;5095692;28;20024;-79
2021/06/23 10:04:04;;;;;;;5.95;1.42;;;20.70;61.60;;;;;;5095970;28;20039;-79
2021/06/23 10:06:43;;;;;;;6.68;1.58;;;20.80;63.20;;;;;;5095110;28;20103;-78
2021/06/23 10:09:25;;;;;;;8.02;2.03;;;21.10;60.80;;;;;;5098335;28;20383;-78
2021/06/23 10:11:55;;;;;;;5.72;1.65;;;21.30;59.90;;;;;;5099633;28;20352;-79
2021/06/23 10:14:22;;;;;;;5.50;1.30;;;21.50;60.00;;;;;;5097723;28;20020;-82
2021/06/23 10:16:52;;;;;;;7.00;1.42;;;21.60;59.30;;;;;;5097850;28;20020;-81
2021/06/23 10:19:18;;;;;;;4.20;1.23;;;21.70;58.00;;;;;;5098045;28;20364;-80
2021/06/23 10:21:44;;;;;;;7.28;1.80;;;21.80;59.20;;;;;;5097194;28;20016;-79
2021/06/23 10:24:12;;;;;;;6.50;1.52;;;21.80;62.40;;;;;;5096541;28;20346;-79
2021/06/23 10:26:43;;;;;;;5.50;1.23;;;21.90;60.50;;;;;;5095660;28;20027;-78
2021/06/23 10:29:12;;;;;;;7.25;1.95;;;21.90;60.50;;;;;;5094939;28;20028;-81
2021/06/23 10:31:38;;;;;;;6.53;1.40;;;21.90;60.60;;;;;;5094834;28;20020;-78
2021/06/23 10:34:04;;;;;;;6.05;1.60;;;21.70;60.50;;;;;;5095304;28;20057;-79
2021/06/23 10:36:30;;;;;;;4.85;1.70;;;21.50;61.70;;;;;;5095724;28;20357;-78
2021/06/23 10:38:57;;;;;;;6.68;1.50;;;21.40;60.20;;;;;;5095607;28;20586;-80
2021/06/23 10:41:23;;;;;;;4.53;1.20;;;21.40;62.90;;;;;;5095262;28;20052;-79
2021/06/23 10:44:17;;;;;;;5.35;1.58;;;21.50;61.20;;;;;;5095279;28;20116;-77
2021/06/23 10:46:44;;;;;;;5.50;1.20;;;21.60;60.20;;;;;;5092267;28;20115;-77
2021/06/23 10:49:15;;;;;;;6.78;1.70;;;21.80;60.80;;;;;;5095698;28;20054;-77
2021/06/23 10:51:41;;;;;;;9.43;2.08;;;21.70;58.70;;;;;;5094961;28;20024;-79
2021/06/23 10:54:42;;;;;;;6.35;1.77;;;21.60;61.30;;;;;;5095814;28;20480;-78
2021/06/23 10:57:23;;;;;;;5.55;1.75;;;21.60;60.80;;;;;;5017000;28;20025;-78
2021/06/23 10:59:49;;;;;;;6.07;1.50;;;21.80;61.80;;;;;;5089653;28;20036;-79
2021/06/23 11:02:15;;;;;;;8.98;1.63;;;22.00;61.00;;;;;;5094697;28;20090;-79
2021/06/23 11:05:02;;;;;;;6.97;1.70;;;22.20;61.70;;;;;;5094382;28;20028;-79
2021/06/23 11:07:38;;;;;;;6.75;1.50;;;22.30;58.10;;;;;;5093940;28;20024;-78
2021/06/23 11:10:12;;;;;;;9.32;1.67;;;22.40;54.70;;;;;;5094882;28;20499;-78
2021/06/23 11:12:48;;;;;;;3.88;1.33;;;22.50;56.30;;;;;;5094510;28;20093;-78
2021/06/23 11:15:16;;;;;;;7.15;1.95;;;22.60;55.80;;;;;;5094684;28;20069;-79
2021/06/23 11:17:43;;;;;;;7.60;2.10;;;22.60;55.70;;;;;;5096497;28;20028;-78
2021/06/23 11:20:21;;;;;;;6.15;1.30;;;22.70;56.80;;;;;;5093852;28;20028;-79
2021/06/23 11:22:51;;;;;;;7.80;2.17;;;22.80;56.20;;;;;;5094700;28;20016;-78
2021/06/23 11:25:33;;;;;;;6.38;1.48;;;22.90;53.80;;;;;;5094329;28;20103;-79
2021/06/23 11:28:08;;;;;;;6.38;1.70;;;22.80;59.20;;;;;;5094263;28;20491;-78
2021/06/23 11:30:55;;;;;;;8.35;2.28;;;22.80;57.90;;;;;;5095272;28;20075;-78
2021/06/23 11:33:27;;;;;;;6.47;1.60;;;22.90;55.20;;;;;;5095644;28;20055;-78
2021/06/23 11:35:58;;;;;;;9.27;1.60;;;22.90;52.20;;;;;;5107477;28;20015;-80
2021/06/23 11:38:24;;;;;;;7.07;1.55;;;23.00;54.60;;;;;;5102859;28;20077;-80
2021/06/23 11:40:51;;;;;;;6.63;1.58;;;23.20;54.50;;;;;;5092943;28;20028;-77
2021/06/23 11:43:17;;;;;;;9.05;2.42;;;23.20;53.70;;;;;;5093229;28;20028;-78
2021/06/23 11:45:44;;;;;;;4.13;1.35;;;23.30;53.50;;;;;;5093339;28;20027;-78
2021/06/23 11:48:10;;;;;;;5.30;1.60;;;23.30;57.10;;;;;;5093886;28;20100;-77
2021/06/23 11:50:36;;;;;;;8.98;2.10;;;23.40;56.50;;;;;;5093591;28;20057;-78
2021/06/23 11:53:06;;;;;;;5.25;1.50;;;23.60;55.10;;;;;;5094636;28;20024;-78
2021/06/23 11:55:32;;;;;;;4.25;1.52;;;23.60;54.30;;;;;;5093016;28;20055;-79
2021/06/23 11:58:00;;;;;;;9.90;2.90;;;23.60;58.40;;;;;;5093568;28;20035;-78
2021/06/23 12:00:27;;;;;;;7.50;2.03;;;23.80;58.60;;;;;;5094346;28;20119;-78
2021/06/23 12:02:53;;;;;;;4.97;1.80;;;24.00;52.20;;;;;;5093272;28;20013;-77
2021/06/23 12:05:19;;;;;;;6.30;1.33;;;24.10;53.50;;;;;;5101036;28;20031;-78
2021/06/23 12:07:45;;;;;;;5.72;1.38;;;24.20;57.50;;;;;;5094798;28;20104;-80
2021/06/23 12:10:11;;;;;;;4.47;1.10;;;24.10;59.10;;;;;;5092139;28;20016;-77
2021/06/23 12:12:37;;;;;;;6.97;1.92;;;24.00;59.00;;;;;;5091146;28;20019;-78
2021/06/23 12:15:09;;;;;;;5.20;1.20;;;23.90;56.80;;;;;;5093482;28;20111;-81
2021/06/23 12:17:37;;;;;;;7.85;2.47;;;23.70;60.40;;;;;;5092612;28;20024;-78
2021/06/23 12:20:04;;;;;;;6.38;1.83;;;23.50;61.00;;;;;;5092687;28;20042;-78
2021/06/23 12:22:31;;;;;;;7.18;1.80;;;23.40;61.70;;;;;;5091614;28;20429;-78
2021/06/23 12:24:56;;;;;;;9.15;2.22;;;23.30;57.80;;;;;;5091922;28;20036;-77
2021/06/23 12:27:22;;;;;;;7.93;2.38;;;23.30;58.70;;;;;;5094046;28;20026;-77
2021/06/23 12:29:48;;;;;;;5.75;1.58;;;23.30;58.30;;;;;;5092156;28;20020;-75
2021/06/23 12:32:13;;;;;;;5.00;2.00;;;23.10;60.00;;;;;;5092667;28;20075;-78
2021/06/23 12:34:39;;;;;;;8.40;2.80;;;23.10;62.40;;;;;;5095543;28;20050;-80
2021/06/23 12:37:05;;;;;;;6.75;2.17;;;23.00;63.10;;;;;;5086778;28;20050;-78
2021/06/23 12:39:30;;;;;;;7.28;2.22;;;23.00;60.00;;;;;;5084246;28;20448;-79
2021/06/23 12:41:56;;;;;;;9.23;2.67;;;22.80;58.70;;;;;;5082627;28;20480;-78
2021/06/23 12:44:22;;;;;;;7.28;2.15;;;22.70;63.20;;;;;;5081590;28;20032;-75
2021/06/23 12:46:47;;;;;;;8.05;2.38;;;22.70;62.60;;;;;;5087427;28;20024;-77
2021/06/23 12:49:13;;;;;;;10.43;2.65;;;22.80;63.20;;;;;;5092763;28;20027;-77
2021/06/23 12:51:40;;;;;;;6.10;2.50;;;22.80;58.10;;;;;;5092510;28;20019;-77
2021/06/23 12:54:06;;;;;;;5.18;2.13;;;22.70;61.60;;;;;;5093257;28;20024;-77
2021/06/23 12:56:31;;;;;;;9.68;2.47;;;22.70;60.60;;;;;;5093069;28;20030;-77
2021/06/23 12:58:57;;;;;;;8.10;2.30;;;22.80;61.40;;;;;;5092377;28;20021;-78